sensor_id;sensor_type;location;lat;lon;timestamp;temperature;humidity
38726;DHT22;24474;48.906;8.808;2023-07-28T00:01:38;18.10;99.90
38726;DHT22;24474;48.906;8.808;2023-07-28T00:04:04;18.00;99.90
38726;DHT22;24474;48.906;8.808;2023-07-28T00:06:32;18.10;99.90
38726;DHT22;24474;48.906;8.808;2023-07-28T00:08:58;18.10;99.90
38726;DHT22;24474;48.906;8.808;2023-07-28T00:11:24;18.00;99.90
38726;DHT22;24474;48.906;8.808;2023-07-28T00:13:49;18.10;99.90
38726;DHT22;24474;48.906;8.808;2023-07-28T00:16:15;18.00;99.90
38726;DHT22;24474;48.906;8.808;2023-07-28T00:18:41;18.00;99.90
38726;DHT22;24474;48.906;8.808;2023-07-28T00:21:06;18.00;99.90
38726;DHT22;24474;48.906;8.808;2023-07-28T00:23:32;18.10;99.90
38726;DHT22;24474;48.906;8.808;2023-07-28T00:25:58;18.00;99.90
38726;DHT22;24474;48.906;8.808;2023-07-28T00:28:23;18.10;99.90
38726;DHT22;24474;48.906;8.808;2023-07-28T00:30:50;18.10;99.90
38726;DHT22;24474;48.906;8.808;2023-07-28T00:33:16;18.10;99.90
38726;DHT22;24474;48.906;8.808;2023-07-28T00:35:44;18.10;99.90
38726;DHT22;24474;48.906;8.808;2023-07-28T00:38:11;18.10;99.90
38726;DHT22;24474;48.906;8.808;2023-07-28T00:40:39;18.10;99.90
38726;DHT22;24474;48.906;8.808;2023-07-28T00:43:07;18.10;99.90
38726;DHT22;24474;48.906;8.808;2023-07-28T00:45:38;18.10;99.90
38726;DHT22;24474;48.906;8.808;2023-07-28T00:48:14;18.00;99.90
38726;DHT22;24474;48.906;8.808;2023-07-28T00:50:48;18.00;99.90
38726;DHT22;24474;48.906;8.808;2023-07-28T00:53:16;18.00;99.90
38726;DHT22;24474;48.906;8.808;2023-07-28T00:55:42;17.90;99.90
38726;DHT22;24474;48.906;8.808;2023-07-28T00:58:10;17.90;99.90
38726;DHT22;24474;48.906;8.808;2023-07-28T01:00:37;17.90;99.90
38726;DHT22;24474;48.906;8.808;2023-07-28T01:03:06;17.90;99.90
38726;DHT22;24474;48.906;8.808;2023-07-28T01:11:02;17.80;99.90
38726;DHT22;24474;48.906;8.808;2023-07-28T01:13:28;17.80;99.90
38726;DHT22;24474;48.906;8.808;2023-07-28T01:15:55;17.80;99.90
38726;DHT22;24474;48.906;8.808;2023-07-28T01:18:20;17.80;99.90
38726;DHT22;24474;48.906;8.808;2023-07-28T01:20:46;17.70;99.90
38726;DHT22;24474;48.906;8.808;2023-07-28T01:23:20;17.70;99.90
38726;DHT22;24474;48.906;8.808;2023-07-28T01:26:03;17.70;99.90
38726;DHT22;24474;48.906;8.808;2023-07-28T01:28:33;17.70;99.90
38726;DHT22;24474;48.906;8.808;2023-07-28T01:31:05;17.60;99.90
38726;DHT22;24474;48.906;8.808;2023-07-28T01:33:33;17.60;99.90
38726;DHT22;24474;48.906;8.808;2023-07-28T01:36:01;17.60;99.90
38726;DHT22;24474;48.906;8.808;2023-07-28T01:38:28;17.50;99.90
38726;DHT22;24474;48.906;8.808;2023-07-28T01:40:56;17.50;99.90
38726;DHT22;24474;48.906;8.808;2023-07-28T01:43:24;17.50;99.90
38726;DHT22;24474;48.906;8.808;2023-07-28T01:45:51;17.40;99.90
38726;DHT22;24474;48.906;8.808;2023-07-28T01:48:19;17.40;99.90
38726;DHT22;24474;48.906;8.808;2023-07-28T01:50:45;17.40;99.90
38726;DHT22;24474;48.906;8.808;2023-07-28T01:53:11;17.40;99.90
38726;DHT22;24474;48.906;8.808;2023-07-28T01:55:37;17.30;99.90
38726;DHT22;24474;48.906;8.808;2023-07-28T01:58:04;17.30;99.90
38726;DHT22;24474;48.906;8.808;2023-07-28T02:00:34;17.30;99.90
38726;DHT22;24474;48.906;8.808;2023-07-28T02:03:03;17.30;99.90
38726;DHT22;24474;48.906;8.808;2023-07-28T02:05:30;17.30;99.90
38726;DHT22;24474;48.906;8.808;2023-07-28T02:07:57;17.30;99.90
38726;DHT22;24474;48.906;8.808;2023-07-28T02:10:23;17.30;99.90
38726;DHT22;24474;48.906;8.808;2023-07-28T02:12:50;17.20;99.90
38726;DHT22;24474;48.906;8.808;2023-07-28T02:15:18;17.20;99.90
38726;DHT22;24474;48.906;8.808;2023-07-28T02:17:45;17.20;99.90
38726;DHT22;24474;48.906;8.808;2023-07-28T02:20:11;17.20;99.90
38726;DHT22;24474;48.906;8.808;2023-07-28T02:22:39;17.20;99.90
38726;DHT22;24474;48.906;8.808;2023-07-28T02:25:06;17.20;99.90
38726;DHT22;24474;48.906;8.808;2023-07-28T02:27:33;17.20;99.90
38726;DHT22;24474;48.906;8.808;2023-07-28T02:30:00;17.10;99.90
38726;DHT22;24474;48.906;8.808;2023-07-28T02:32:32;17.10;99.90
38726;DHT22;24474;48.906;8.808;2023-07-28T02:34:59;17.10;99.90
38726;DHT22;24474;48.906;8.808;2023-07-28T02:37:26;17.10;99.90
38726;DHT22;24474;48.906;8.808;2023-07-28T02:39:52;17.10;99.90
38726;DHT22;24474;48.906;8.808;2023-07-28T02:42:19;17.10;99.90
38726;DHT22;24474;48.906;8.808;2023-07-28T02:44:46;17.10;99.90
38726;DHT22;24474;48.906;8.808;2023-07-28T02:47:14;17.00;99.90
38726;DHT22;24474;48.906;8.808;2023-07-28T02:49:42;17.10;99.90
38726;DHT22;24474;48.906;8.808;2023-07-28T02:52:08;17.10;99.90
38726;DHT22;24474;48.906;8.808;2023-07-28T02:54:36;17.10;99.90
38726;DHT22;24474;48.906;8.808;2023-07-28T02:57:05;17.10;99.90
38726;DHT22;24474;48.906;8.808;2023-07-28T02:59:30;17.10;99.90
38726;DHT22;24474;48.906;8.808;2023-07-28T03:01:56;17.10;99.90
38726;DHT22;24474;48.906;8.808;2023-07-28T03:04:24;17.10;99.90
38726;DHT22;24474;48.906;8.808;2023-07-28T03:06:49;17.00;99.90
38726;DHT22;24474;48.906;8.808;2023-07-28T03:09:16;17.00;99.90
38726;DHT22;24474;48.906;8.808;2023-07-28T03:11:44;17.00;99.90
38726;DHT22;24474;48.906;8.808;2023-07-28T03:14:10;17.10;99.90
38726;DHT22;24474;48.906;8.808;2023-07-28T03:16:38;17.10;99.90
38726;DHT22;24474;48.906;8.808;2023-07-28T03:19:06;17.10;99.90
38726;DHT22;24474;48.906;8.808;2023-07-28T03:21:31;17.10;99.90
38726;DHT22;24474;48.906;8.808;2023-07-28T03:24:00;17.10;99.90
38726;DHT22;24474;48.906;8.808;2023-07-28T03:26:26;17.10;99.90
38726;DHT22;24474;48.906;8.808;2023-07-28T03:28:54;17.00;99.90
38726;DHT22;24474;48.906;8.808;2023-07-28T03:31:20;17.10;99.90
38726;DHT22;24474;48.906;8.808;2023-07-28T03:33:48;17.00;99.90
38726;DHT22;24474;48.906;8.808;2023-07-28T03:36:21;17.10;99.90
38726;DHT22;24474;48.906;8.808;2023-07-28T03:38:47;17.10;99.90
38726;DHT22;24474;48.906;8.808;2023-07-28T03:41:13;17.10;99.90
38726;DHT22;24474;48.906;8.808;2023-07-28T03:43:41;17.10;99.90
38726;DHT22;24474;48.906;8.808;2023-07-28T03:46:08;17.10;99.90
38726;DHT22;24474;48.906;8.808;2023-07-28T03:48:34;17.00;99.90
38726;DHT22;24474;48.906;8.808;2023-07-28T03:51:00;17.00;99.90
38726;DHT22;24474;48.906;8.808;2023-07-28T03:53:27;17.10;99.90
38726;DHT22;24474;48.906;8.808;2023-07-28T03:55:53;17.10;99.90
38726;DHT22;24474;48.906;8.808;2023-07-28T03:58:25;17.10;99.90
38726;DHT22;24474;48.906;8.808;2023-07-28T04:00:52;17.10;99.90
38726;DHT22;24474;48.906;8.808;2023-07-28T04:03:20;17.10;99.90
38726;DHT22;24474;48.906;8.808;2023-07-28T04:05:47;17.10;99.90
38726;DHT22;24474;48.906;8.808;2023-07-28T04:08:14;17.10;99.90
38726;DHT22;24474;48.906;8.808;2023-07-28T04:10:39;17.10;99.90
38726;DHT22;24474;48.906;8.808;2023-07-28T04:13:06;17.10;99.90
38726;DHT22;24474;48.906;8.808;2023-07-28T04:15:33;17.20;99.90
38726;DHT22;24474;48.906;8.808;2023-07-28T04:18:00;17.20;99.90
38726;DHT22;24474;48.906;8.808;2023-07-28T04:20:31;17.20;99.90
38726;DHT22;24474;48.906;8.808;2023-07-28T04:22:58;17.20;99.90
38726;DHT22;24474;48.906;8.808;2023-07-28T04:25:24;17.20;99.90
38726;DHT22;24474;48.906;8.808;2023-07-28T04:27:51;17.20;99.90
38726;DHT22;24474;48.906;8.808;2023-07-28T04:30:17;17.20;99.90
38726;DHT22;24474;48.906;8.808;2023-07-28T04:32:43;17.20;99.90
38726;DHT22;24474;48.906;8.808;2023-07-28T04:35:09;17.20;99.90
38726;DHT22;24474;48.906;8.808;2023-07-28T04:37:35;17.30;99.90
38726;DHT22;24474;48.906;8.808;2023-07-28T04:40:01;17.30;99.90
38726;DHT22;24474;48.906;8.808;2023-07-28T04:42:28;17.30;99.90
38726;DHT22;24474;48.906;8.808;2023-07-28T04:44:53;17.20;99.90
38726;DHT22;24474;48.906;8.808;2023-07-28T04:47:21;17.30;99.90
38726;DHT22;24474;48.906;8.808;2023-07-28T04:49:46;17.30;99.90
38726;DHT22;24474;48.906;8.808;2023-07-28T04:52:13;17.30;99.90
38726;DHT22;24474;48.906;8.808;2023-07-28T04:54:42;17.30;99.90
38726;DHT22;24474;48.906;8.808;2023-07-28T04:57:09;17.30;99.90
38726;DHT22;24474;48.906;8.808;2023-07-28T04:59:35;17.30;99.90
38726;DHT22;24474;48.906;8.808;2023-07-28T05:02:01;17.40;99.90
38726;DHT22;24474;48.906;8.808;2023-07-28T05:04:27;17.40;99.90
38726;DHT22;24474;48.906;8.808;2023-07-28T05:06:53;17.40;99.90
38726;DHT22;24474;48.906;8.808;2023-07-28T05:09:18;17.40;99.90
38726;DHT22;24474;48.906;8.808;2023-07-28T05:11:44;17.50;99.90
38726;DHT22;24474;48.906;8.808;2023-07-28T05:14:09;17.50;99.90
38726;DHT22;24474;48.906;8.808;2023-07-28T05:16:35;17.50;99.90
38726;DHT22;24474;48.906;8.808;2023-07-28T05:19:01;17.50;99.90
38726;DHT22;24474;48.906;8.808;2023-07-28T05:21:27;17.50;99.90
38726;DHT22;24474;48.906;8.808;2023-07-28T05:23:52;17.60;99.90
38726;DHT22;24474;48.906;8.808;2023-07-28T05:26:18;17.60;99.90
38726;DHT22;24474;48.906;8.808;2023-07-28T05:28:46;17.60;99.90
38726;DHT22;24474;48.906;8.808;2023-07-28T05:31:12;17.60;99.90
38726;DHT22;24474;48.906;8.808;2023-07-28T05:33:39;17.60;99.90
38726;DHT22;24474;48.906;8.808;2023-07-28T05:36:05;17.70;99.90
38726;DHT22;24474;48.906;8.808;2023-07-28T05:38:31;17.70;99.90
38726;DHT22;24474;48.906;8.808;2023-07-28T05:41:01;17.70;99.90
38726;DHT22;24474;48.906;8.808;2023-07-28T05:43:31;17.70;99.90
38726;DHT22;24474;48.906;8.808;2023-07-28T05:45:58;17.70;99.90
38726;DHT22;24474;48.906;8.808;2023-07-28T05:48:24;17.70;99.90
38726;DHT22;24474;48.906;8.808;2023-07-28T05:50:50;17.70;99.90
38726;DHT22;24474;48.906;8.808;2023-07-28T05:53:18;17.70;99.90
38726;DHT22;24474;48.906;8.808;2023-07-28T05:55:44;17.70;99.90
38726;DHT22;24474;48.906;8.808;2023-07-28T05:58:10;17.70;99.90
38726;DHT22;24474;48.906;8.808;2023-07-28T06:00:39;17.70;99.90
38726;DHT22;24474;48.906;8.808;2023-07-28T06:03:06;17.70;99.90
38726;DHT22;24474;48.906;8.808;2023-07-28T06:05:31;17.70;99.90
38726;DHT22;24474;48.906;8.808;2023-07-28T06:07:57;17.70;99.90
38726;DHT22;24474;48.906;8.808;2023-07-28T06:10:23;17.70;99.90
38726;DHT22;24474;48.906;8.808;2023-07-28T06:12:48;17.70;99.90
38726;DHT22;24474;48.906;8.808;2023-07-28T06:15:14;17.70;99.90
38726;DHT22;24474;48.906;8.808;2023-07-28T06:17:40;17.80;99.90
38726;DHT22;24474;48.906;8.808;2023-07-28T06:20:06;17.80;99.90
38726;DHT22;24474;48.906;8.808;2023-07-28T06:22:32;17.80;99.90
38726;DHT22;24474;48.906;8.808;2023-07-28T06:24:57;17.80;99.90
38726;DHT22;24474;48.906;8.808;2023-07-28T06:27:23;17.80;99.90
38726;DHT22;24474;48.906;8.808;2023-07-28T06:29:49;17.80;99.90
38726;DHT22;24474;48.906;8.808;2023-07-28T06:32:14;17.80;99.90
38726;DHT22;24474;48.906;8.808;2023-07-28T06:34:40;17.80;99.90
38726;DHT22;24474;48.906;8.808;2023-07-28T06:37:06;17.80;99.90
38726;DHT22;24474;48.906;8.808;2023-07-28T06:39:31;17.90;99.90
38726;DHT22;24474;48.906;8.808;2023-07-28T06:41:57;17.90;99.90
38726;DHT22;24474;48.906;8.808;2023-07-28T06:44:22;18.00;99.90
38726;DHT22;24474;48.906;8.808;2023-07-28T06:46:48;18.00;99.90
38726;DHT22;24474;48.906;8.808;2023-07-28T06:49:14;18.00;99.90
38726;DHT22;24474;48.906;8.808;2023-07-28T06:51:40;18.00;99.90
38726;DHT22;24474;48.906;8.808;2023-07-28T06:54:05;18.00;99.90
38726;DHT22;24474;48.906;8.808;2023-07-28T06:56:36;18.00;99.90
38726;DHT22;24474;48.906;8.808;2023-07-28T06:59:02;18.00;99.90
38726;DHT22;24474;48.906;8.808;2023-07-28T07:01:32;18.00;99.90
38726;DHT22;24474;48.906;8.808;2023-07-28T07:04:02;18.00;99.90
38726;DHT22;24474;48.906;8.808;2023-07-28T07:06:31;18.10;99.90
38726;DHT22;24474;48.906;8.808;2023-07-28T07:08:58;18.10;99.90
38726;DHT22;24474;48.906;8.808;2023-07-28T07:11:25;18.10;99.90
38726;DHT22;24474;48.906;8.808;2023-07-28T07:13:52;18.30;99.90
38726;DHT22;24474;48.906;8.808;2023-07-28T07:16:18;18.30;99.90
38726;DHT22;24474;48.906;8.808;2023-07-28T07:18:45;18.40;99.90
38726;DHT22;24474;48.906;8.808;2023-07-28T07:21:12;18.50;99.90
38726;DHT22;24474;48.906;8.808;2023-07-28T07:23:39;18.60;99.90
38726;DHT22;24474;48.906;8.808;2023-07-28T07:26:05;18.70;99.90
38726;DHT22;24474;48.906;8.808;2023-07-28T07:28:32;18.80;99.90
38726;DHT22;24474;48.906;8.808;2023-07-28T07:30:57;18.80;99.90
38726;DHT22;24474;48.906;8.808;2023-07-28T07:33:24;18.70;99.90
38726;DHT22;24474;48.906;8.808;2023-07-28T07:35:51;18.70;99.90
38726;DHT22;24474;48.906;8.808;2023-07-28T07:38:17;18.80;99.90
38726;DHT22;24474;48.906;8.808;2023-07-28T07:40:46;18.80;99.90
38726;DHT22;24474;48.906;8.808;2023-07-28T07:43:15;18.80;99.90
38726;DHT22;24474;48.906;8.808;2023-07-28T07:45:46;18.80;99.90
38726;DHT22;24474;48.906;8.808;2023-07-28T07:48:13;18.80;99.90
38726;DHT22;24474;48.906;8.808;2023-07-28T07:50:40;18.70;99.90
38726;DHT22;24474;48.906;8.808;2023-07-28T07:53:06;18.80;99.90
38726;DHT22;24474;48.906;8.808;2023-07-28T07:55:32;18.80;99.90
38726;DHT22;24474;48.906;8.808;2023-07-28T07:57:59;18.80;99.90
38726;DHT22;24474;48.906;8.808;2023-07-28T08:00:25;18.70;99.90
38726;DHT22;24474;48.906;8.808;2023-07-28T08:02:52;18.80;99.90
38726;DHT22;24474;48.906;8.808;2023-07-28T08:05:19;18.80;99.90
38726;DHT22;24474;48.906;8.808;2023-07-28T08:07:47;18.80;99.90
38726;DHT22;24474;48.906;8.808;2023-07-28T08:10:15;18.90;99.90
38726;DHT22;24474;48.906;8.808;2023-07-28T08:12:43;18.90;99.90
38726;DHT22;24474;48.906;8.808;2023-07-28T08:15:11;19.00;99.90
38726;DHT22;24474;48.906;8.808;2023-07-28T08:17:36;19.00;99.90
38726;DHT22;24474;48.906;8.808;2023-07-28T08:20:05;19.10;99.90
38726;DHT22;24474;48.906;8.808;2023-07-28T08:22:34;19.10;99.90
38726;DHT22;24474;48.906;8.808;2023-07-28T08:25:01;19.10;99.90
38726;DHT22;24474;48.906;8.808;2023-07-28T08:27:28;19.10;99.90
38726;DHT22;24474;48.906;8.808;2023-07-28T08:29:55;19.10;99.90
38726;DHT22;24474;48.906;8.808;2023-07-28T08:32:21;19.10;99.90
38726;DHT22;24474;48.906;8.808;2023-07-28T08:34:48;19.10;99.90
38726;DHT22;24474;48.906;8.808;2023-07-28T08:37:15;19.10;99.90
38726;DHT22;24474;48.906;8.808;2023-07-28T08:39:40;19.20;99.90
38726;DHT22;24474;48.906;8.808;2023-07-28T08:42:07;19.20;99.90
38726;DHT22;24474;48.906;8.808;2023-07-28T08:44:34;19.30;99.90
38726;DHT22;24474;48.906;8.808;2023-07-28T08:47:01;19.30;99.90
38726;DHT22;24474;48.906;8.808;2023-07-28T08:49:28;19.50;99.90
38726;DHT22;24474;48.906;8.808;2023-07-28T08:51:59;19.60;99.90
38726;DHT22;24474;48.906;8.808;2023-07-28T08:54:25;19.80;99.90
38726;DHT22;24474;48.906;8.808;2023-07-28T08:56:52;19.80;99.90
38726;DHT22;24474;48.906;8.808;2023-07-28T08:59:27;19.90;99.90
38726;DHT22;24474;48.906;8.808;2023-07-28T09:01:55;20.00;99.90
38726;DHT22;24474;48.906;8.808;2023-07-28T09:04:22;20.10;99.90
38726;DHT22;24474;48.906;8.808;2023-07-28T09:06:50;20.20;99.90
38726;DHT22;24474;48.906;8.808;2023-07-28T09:09:18;20.30;99.90
38726;DHT22;24474;48.906;8.808;2023-07-28T09:11:46;20.40;99.90
38726;DHT22;24474;48.906;8.808;2023-07-28T09:14:15;20.50;99.90
38726;DHT22;24474;48.906;8.808;2023-07-28T09:16:44;20.60;99.90
38726;DHT22;24474;48.906;8.808;2023-07-28T09:19:12;20.60;99.90
38726;DHT22;24474;48.906;8.808;2023-07-28T09:21:43;20.80;99.90
38726;DHT22;24474;48.906;8.808;2023-07-28T09:24:13;20.80;99.90
38726;DHT22;24474;48.906;8.808;2023-07-28T09:26:48;20.80;99.90
38726;DHT22;24474;48.906;8.808;2023-07-28T09:29:20;20.80;99.90
38726;DHT22;24474;48.906;8.808;2023-07-28T09:31:48;20.90;99.90
38726;DHT22;24474;48.906;8.808;2023-07-28T09:34:28;21.00;99.90
38726;DHT22;24474;48.906;8.808;2023-07-28T09:36:56;21.00;99.90
38726;DHT22;24474;48.906;8.808;2023-07-28T09:39:24;21.00;99.90
38726;DHT22;24474;48.906;8.808;2023-07-28T09:41:50;21.10;99.90
38726;DHT22;24474;48.906;8.808;2023-07-28T09:44:17;21.20;99.90
38726;DHT22;24474;48.906;8.808;2023-07-28T09:46:49;21.30;99.90
38726;DHT22;24474;48.906;8.808;2023-07-28T09:49:20;21.30;99.90
38726;DHT22;24474;48.906;8.808;2023-07-28T09:51:48;21.20;99.90
38726;DHT22;24474;48.906;8.808;2023-07-28T09:54:24;21.10;99.90
38726;DHT22;24474;48.906;8.808;2023-07-28T09:56:55;21.20;99.90
38726;DHT22;24474;48.906;8.808;2023-07-28T09:59:38;21.20;99.90
38726;DHT22;24474;48.906;8.808;2023-07-28T10:02:06;21.30;99.90
38726;DHT22;24474;48.906;8.808;2023-07-28T10:04:33;21.30;99.90
38726;DHT22;24474;48.906;8.808;2023-07-28T10:07:01;21.30;99.90
38726;DHT22;24474;48.906;8.808;2023-07-28T10:09:31;21.40;99.90
38726;DHT22;24474;48.906;8.808;2023-07-28T10:12:00;21.40;99.90
38726;DHT22;24474;48.906;8.808;2023-07-28T10:14:36;21.40;99.90
38726;DHT22;24474;48.906;8.808;2023-07-28T10:17:06;21.40;99.90
38726;DHT22;24474;48.906;8.808;2023-07-28T10:19:42;21.40;99.90
38726;DHT22;24474;48.906;8.808;2023-07-28T10:22:10;21.50;99.90
38726;DHT22;24474;48.906;8.808;2023-07-28T10:25:00;21.60;99.90
38726;DHT22;24474;48.906;8.808;2023-07-28T10:27:45;21.70;99.90
38726;DHT22;24474;48.906;8.808;2023-07-28T10:30:14;21.70;99.90
38726;DHT22;24474;48.906;8.808;2023-07-28T10:32:44;21.60;99.90
38726;DHT22;24474;48.906;8.808;2023-07-28T10:35:25;21.50;99.90
38726;DHT22;24474;48.906;8.808;2023-07-28T10:37:53;21.40;99.90
38726;DHT22;24474;48.906;8.808;2023-07-28T10:40:35;21.40;99.90
38726;DHT22;24474;48.906;8.808;2023-07-28T10:43:03;21.30;99.90
38726;DHT22;24474;48.906;8.808;2023-07-28T10:45:32;21.30;99.90
38726;DHT22;24474;48.906;8.808;2023-07-28T10:48:00;21.20;99.90
38726;DHT22;24474;48.906;8.808;2023-07-28T10:50:31;21.20;99.90
38726;DHT22;24474;48.906;8.808;2023-07-28T10:52:58;21.20;99.90
38726;DHT22;24474;48.906;8.808;2023-07-28T10:55:26;21.30;99.90
38726;DHT22;24474;48.906;8.808;2023-07-28T10:57:54;21.30;99.90
38726;DHT22;24474;48.906;8.808;2023-07-28T11:00:22;21.40;99.90
38726;DHT22;24474;48.906;8.808;2023-07-28T11:02:52;21.50;99.90
38726;DHT22;24474;48.906;8.808;2023-07-28T11:05:26;21.60;99.90
38726;DHT22;24474;48.906;8.808;2023-07-28T11:07:54;21.60;99.90
38726;DHT22;24474;48.906;8.808;2023-07-28T11:10:20;21.70;99.90
38726;DHT22;24474;48.906;8.808;2023-07-28T11:12:48;21.70;99.90
38726;DHT22;24474;48.906;8.808;2023-07-28T11:15:15;21.70;99.90
38726;DHT22;24474;48.906;8.808;2023-07-28T11:17:45;21.70;99.90
38726;DHT22;24474;48.906;8.808;2023-07-28T11:20:18;21.60;99.90
38726;DHT22;24474;48.906;8.808;2023-07-28T11:22:45;21.70;99.90
38726;DHT22;24474;48.906;8.808;2023-07-28T11:25:13;21.60;99.90
38726;DHT22;24474;48.906;8.808;2023-07-28T11:27:40;21.70;99.90
38726;DHT22;24474;48.906;8.808;2023-07-28T11:30:09;21.60;99.90
38726;DHT22;24474;48.906;8.808;2023-07-28T11:32:38;21.70;99.90
38726;DHT22;24474;48.906;8.808;2023-07-28T11:35:08;21.80;99.90
38726;DHT22;24474;48.906;8.808;2023-07-28T11:37:42;21.90;99.90
38726;DHT22;24474;48.906;8.808;2023-07-28T11:40:10;22.10;99.90
38726;DHT22;24474;48.906;8.808;2023-07-28T11:42:41;22.10;99.90
38726;DHT22;24474;48.906;8.808;2023-07-28T11:45:12;22.10;99.90
38726;DHT22;24474;48.906;8.808;2023-07-28T11:47:38;22.20;99.90
38726;DHT22;24474;48.906;8.808;2023-07-28T11:50:04;22.30;99.90
38726;DHT22;24474;48.906;8.808;2023-07-28T11:52:37;22.30;99.90
38726;DHT22;24474;48.906;8.808;2023-07-28T11:55:05;22.30;99.90
38726;DHT22;24474;48.906;8.808;2023-07-28T11:57:32;22.20;99.90
38726;DHT22;24474;48.906;8.808;2023-07-28T12:00:01;22.20;99.90
38726;DHT22;24474;48.906;8.808;2023-07-28T12:02:30;22.10;99.90
38726;DHT22;24474;48.906;8.808;2023-07-28T12:04:56;22.10;99.90
38726;DHT22;24474;48.906;8.808;2023-07-28T12:07:33;22.00;99.90
38726;DHT22;24474;48.906;8.808;2023-07-28T12:10:06;22.00;99.90
38726;DHT22;24474;48.906;8.808;2023-07-28T12:12:47;22.00;99.90
38726;DHT22;24474;48.906;8.808;2023-07-28T12:15:27;22.00;99.90
38726;DHT22;24474;48.906;8.808;2023-07-28T12:18:13;21.90;99.90
38726;DHT22;24474;48.906;8.808;2023-07-28T12:20:44;21.80;99.90
38726;DHT22;24474;48.906;8.808;2023-07-28T12:23:30;21.80;99.90
38726;DHT22;24474;48.906;8.808;2023-07-28T12:25:56;21.70;99.90
38726;DHT22;24474;48.906;8.808;2023-07-28T12:28:23;21.70;99.90
38726;DHT22;24474;48.906;8.808;2023-07-28T12:30:53;21.60;99.90
38726;DHT22;24474;48.906;8.808;2023-07-28T12:33:21;21.60;99.90
38726;DHT22;24474;48.906;8.808;2023-07-28T12:35:49;21.50;99.90
38726;DHT22;24474;48.906;8.808;2023-07-28T12:38:16;21.50;99.90
38726;DHT22;24474;48.906;8.808;2023-07-28T12:40:41;21.50;99.90
38726;DHT22;24474;48.906;8.808;2023-07-28T12:43:13;21.50;99.90
38726;DHT22;24474;48.906;8.808;2023-07-28T12:45:53;21.50;99.90
38726;DHT22;24474;48.906;8.808;2023-07-28T12:48:20;21.60;99.90
38726;DHT22;24474;48.906;8.808;2023-07-28T12:50:47;21.50;99.90
38726;DHT22;24474;48.906;8.808;2023-07-28T12:53:17;21.50;99.90
38726;DHT22;24474;48.906;8.808;2023-07-28T12:55:44;21.50;99.90
38726;DHT22;24474;48.906;8.808;2023-07-28T12:58:11;21.50;99.90
38726;DHT22;24474;48.906;8.808;2023-07-28T13:00:36;21.50;99.90
38726;DHT22;24474;48.906;8.808;2023-07-28T13:03:02;21.50;99.90
38726;DHT22;24474;48.906;8.808;2023-07-28T13:05:27;21.50;99.90
38726;DHT22;24474;48.906;8.808;2023-07-28T13:07:54;21.50;99.90
38726;DHT22;24474;48.906;8.808;2023-07-28T13:10:21;21.40;99.90
38726;DHT22;24474;48.906;8.808;2023-07-28T13:12:48;21.40;99.90
38726;DHT22;24474;48.906;8.808;2023-07-28T13:15:13;21.30;99.90
38726;DHT22;24474;48.906;8.808;2023-07-28T13:17:40;21.30;99.90
38726;DHT22;24474;48.906;8.808;2023-07-28T13:20:07;21.30;99.90
38726;DHT22;24474;48.906;8.808;2023-07-28T13:22:34;21.30;99.90
38726;DHT22;24474;48.906;8.808;2023-07-28T13:25:01;21.30;99.90
38726;DHT22;24474;48.906;8.808;2023-07-28T13:27:29;21.20;99.90
38726;DHT22;24474;48.906;8.808;2023-07-28T13:29:55;21.20;99.90
38726;DHT22;24474;48.906;8.808;2023-07-28T13:32:25;21.20;99.90
38726;DHT22;24474;48.906;8.808;2023-07-28T13:34:53;21.10;99.90
38726;DHT22;24474;48.906;8.808;2023-07-28T13:37:19;21.10;99.90
38726;DHT22;24474;48.906;8.808;2023-07-28T13:39:46;21.10;99.90
38726;DHT22;24474;48.906;8.808;2023-07-28T13:42:12;21.10;99.90
38726;DHT22;24474;48.906;8.808;2023-07-28T13:44:42;21.10;99.90
38726;DHT22;24474;48.906;8.808;2023-07-28T13:47:10;21.10;99.90
38726;DHT22;24474;48.906;8.808;2023-07-28T13:49:36;21.00;99.90
38726;DHT22;24474;48.906;8.808;2023-07-28T13:52:04;21.00;99.90
38726;DHT22;24474;48.906;8.808;2023-07-28T13:54:30;21.00;99.90
38726;DHT22;24474;48.906;8.808;2023-07-28T13:56:55;21.00;99.90
38726;DHT22;24474;48.906;8.808;2023-07-28T13:59:22;21.00;99.90
38726;DHT22;24474;48.906;8.808;2023-07-28T14:01:49;20.90;99.90
38726;DHT22;24474;48.906;8.808;2023-07-28T14:04:17;20.90;99.90
38726;DHT22;24474;48.906;8.808;2023-07-28T14:06:44;20.90;99.90
38726;DHT22;24474;48.906;8.808;2023-07-28T14:09:10;21.00;99.90
38726;DHT22;24474;48.906;8.808;2023-07-28T14:11:36;20.90;99.90
38726;DHT22;24474;48.906;8.808;2023-07-28T14:14:02;21.00;99.90
38726;DHT22;24474;48.906;8.808;2023-07-28T14:16:28;21.00;99.90
38726;DHT22;24474;48.906;8.808;2023-07-28T14:18:54;21.00;99.90
38726;DHT22;24474;48.906;8.808;2023-07-28T14:21:22;21.00;99.90
38726;DHT22;24474;48.906;8.808;2023-07-28T14:23:50;21.00;99.90
38726;DHT22;24474;48.906;8.808;2023-07-28T14:26:16;21.00;99.90
38726;DHT22;24474;48.906;8.808;2023-07-28T14:28:44;21.00;99.90
38726;DHT22;24474;48.906;8.808;2023-07-28T14:31:10;21.00;99.90
38726;DHT22;24474;48.906;8.808;2023-07-28T14:33:37;21.00;99.90
38726;DHT22;24474;48.906;8.808;2023-07-28T14:36:04;20.90;99.90
38726;DHT22;24474;48.906;8.808;2023-07-28T14:38:30;20.80;99.90
38726;DHT22;24474;48.906;8.808;2023-07-28T14:40:57;20.70;99.90
38726;DHT22;24474;48.906;8.808;2023-07-28T14:43:22;20.70;99.90
38726;DHT22;24474;48.906;8.808;2023-07-28T14:45:50;20.70;99.90
38726;DHT22;24474;48.906;8.808;2023-07-28T14:48:18;20.70;99.90
38726;DHT22;24474;48.906;8.808;2023-07-28T14:50:45;20.80;99.90
38726;DHT22;24474;48.906;8.808;2023-07-28T14:53:33;20.70;99.90
38726;DHT22;24474;48.906;8.808;2023-07-28T14:56:06;20.70;99.90
38726;DHT22;24474;48.906;8.808;2023-07-28T14:58:37;20.70;99.90
38726;DHT22;24474;48.906;8.808;2023-07-28T15:01:03;20.70;99.90
38726;DHT22;24474;48.906;8.808;2023-07-28T15:03:31;20.70;99.90
38726;DHT22;24474;48.906;8.808;2023-07-28T15:05:57;20.60;99.90
38726;DHT22;24474;48.906;8.808;2023-07-28T15:08:23;20.60;99.90
38726;DHT22;24474;48.906;8.808;2023-07-28T15:10:48;20.60;99.90
38726;DHT22;24474;48.906;8.808;2023-07-28T15:13:14;20.60;99.90
38726;DHT22;24474;48.906;8.808;2023-07-28T15:15:40;20.60;99.90
38726;DHT22;24474;48.906;8.808;2023-07-28T15:18:06;20.60;99.90
38726;DHT22;24474;48.906;8.808;2023-07-28T15:20:32;20.50;99.90
38726;DHT22;24474;48.906;8.808;2023-07-28T15:22:58;20.40;99.90
38726;DHT22;24474;48.906;8.808;2023-07-28T15:25:25;20.40;99.90
38726;DHT22;24474;48.906;8.808;2023-07-28T15:27:50;20.40;99.90
38726;DHT22;24474;48.906;8.808;2023-07-28T15:30:16;20.30;99.90
38726;DHT22;24474;48.906;8.808;2023-07-28T15:32:42;20.30;99.90
38726;DHT22;24474;48.906;8.808;2023-07-28T15:35:07;20.20;99.90
38726;DHT22;24474;48.906;8.808;2023-07-28T15:37:33;20.20;99.90
38726;DHT22;24474;48.906;8.808;2023-07-28T15:39:59;20.10;99.90